sensor_id;sensor_type;location;lat;lon;timestamp;P1;durP1;ratioP1;P2;durP2;ratioP2
76194;SDS011;64964;48.694;21.206;2023-11-19T00:00:03;9.73;;;5.20;;
76194;SDS011;64964;48.694;21.206;2023-11-19T00:02:29;9.02;;;4.80;;
76194;SDS011;64964;48.694;21.206;2023-11-19T00:04:55;9.83;;;5.07;;
76194;SDS011;64964;48.694;21.206;2023-11-19T00:07:20;8.77;;;4.80;;
76194;SDS011;64964;48.694;21.206;2023-11-19T00:09:45;8.07;;;5.00;;
76194;SDS011;64964;48.694;21.206;2023-11-19T00:12:11;8.20;;;4.70;;
76194;SDS011;64964;48.694;21.206;2023-11-19T00:14:36;10.47;;;4.73;;
76194;SDS011;64964;48.694;21.206;2023-11-19T00:17:01;9.57;;;4.83;;
76194;SDS011;64964;48.694;21.206;2023-11-19T00:19:29;8.80;;;4.57;;
76194;SDS011;64964;48.694;21.206;2023-11-19T00:21:54;8.73;;;4.60;;
76194;SDS011;64964;48.694;21.206;2023-11-19T00:24:19;8.03;;;4.70;;
76194;SDS011;64964;48.694;21.206;2023-11-19T00:26:45;8.32;;;5.03;;
76194;SDS011;64964;48.694;21.206;2023-11-19T00:29:11;8.95;;;4.65;;
76194;SDS011;64964;48.694;21.206;2023-11-19T00:31:38;10.20;;;5.20;;
76194;SDS011;64964;48.694;21.206;2023-11-19T00:34:04;9.70;;;4.73;;
76194;SDS011;64964;48.694;21.206;2023-11-19T00:36:31;7.63;;;4.70;;
76194;SDS011;64964;48.694;21.206;2023-11-19T00:38:56;8.37;;;4.60;;
76194;SDS011;64964;48.694;21.206;2023-11-19T00:41:22;9.47;;;4.73;;
76194;SDS011;64964;48.694;21.206;2023-11-19T00:43:47;9.52;;;5.15;;
76194;SDS011;64964;48.694;21.206;2023-11-19T00:46:14;7.67;;;4.30;;
76194;SDS011;64964;48.694;21.206;2023-11-19T00:48:39;7.68;;;4.13;;
76194;SDS011;64964;48.694;21.206;2023-11-19T00:51:05;11.53;;;5.33;;
76194;SDS011;64964;48.694;21.206;2023-11-19T00:53:31;9.93;;;4.35;;
76194;SDS011;64964;48.694;21.206;2023-11-19T00:55:57;9.52;;;4.68;;
76194;SDS011;64964;48.694;21.206;2023-11-19T00:58:22;9.13;;;4.77;;
76194;SDS011;64964;48.694;21.206;2023-11-19T01:00:48;8.43;;;4.70;;
76194;SDS011;64964;48.694;21.206;2023-11-19T01:03:13;10.87;;;5.00;;
76194;SDS011;64964;48.694;21.206;2023-11-19T01:05:40;7.90;;;4.35;;
76194;SDS011;64964;48.694;21.206;2023-11-19T01:08:06;8.30;;;4.43;;
76194;SDS011;64964;48.694;21.206;2023-11-19T01:10:31;9.60;;;4.50;;
76194;SDS011;64964;48.694;21.206;2023-11-19T01:12:57;7.70;;;4.20;;
76194;SDS011;64964;48.694;21.206;2023-11-19T01:15:22;7.47;;;4.53;;
76194;SDS011;64964;48.694;21.206;2023-11-19T01:17:48;8.73;;;4.90;;
76194;SDS011;64964;48.694;21.206;2023-11-19T01:20:13;8.77;;;4.53;;
76194;SDS011;64964;48.694;21.206;2023-11-19T01:22:39;7.50;;;4.13;;
76194;SDS011;64964;48.694;21.206;2023-11-19T01:25:05;8.45;;;4.72;;
76194;SDS011;64964;48.694;21.206;2023-11-19T01:27:31;7.88;;;4.60;;
76194;SDS011;64964;48.694;21.206;2023-11-19T01:29:59;8.07;;;4.43;;
76194;SDS011;64964;48.694;21.206;2023-11-19T01:32:25;8.20;;;4.27;;
76194;SDS011;64964;48.694;21.206;2023-11-19T01:34:50;8.70;;;4.50;;
76194;SDS011;64964;48.694;21.206;2023-11-19T01:37:16;9.90;;;5.25;;
76194;SDS011;64964;48.694;21.206;2023-11-19T01:39:44;7.30;;;4.50;;
76194;SDS011;64964;48.694;21.206;2023-11-19T01:42:10;8.17;;;4.47;;
76194;SDS011;64964;48.694;21.206;2023-11-19T01:44:37;8.60;;;4.55;;
76194;SDS011;64964;48.694;21.206;2023-11-19T01:47:02;6.68;;;4.32;;
76194;SDS011;64964;48.694;21.206;2023-11-19T01:49:29;8.80;;;4.63;;
76194;SDS011;64964;48.694;21.206;2023-11-19T01:51:56;8.60;;;4.10;;
76194;SDS011;64964;48.694;21.206;2023-11-19T01:54:23;9.30;;;4.40;;
76194;SDS011;64964;48.694;21.206;2023-11-19T01:56:48;7.82;;;4.22;;
76194;SDS011;64964;48.694;21.206;2023-11-19T01:59:14;8.13;;;4.57;;
76194;SDS011;64964;48.694;21.206;2023-11-19T02:01:40;7.47;;;4.70;;
76194;SDS011;64964;48.694;21.206;2023-11-19T02:04:07;7.70;;;4.65;;
76194;SDS011;64964;48.694;21.206;2023-11-19T02:06:33;9.07;;;4.87;;
76194;SDS011;64964;48.694;21.206;2023-11-19T02:09:01;7.50;;;4.15;;
76194;SDS011;64964;48.694;21.206;2023-11-19T02:11:32;9.18;;;4.72;;
76194;SDS011;64964;48.694;21.206;2023-11-19T02:13:58;8.50;;;4.72;;
76194;SDS011;64964;48.694;21.206;2023-11-19T02:16:24;9.07;;;4.80;;
76194;SDS011;64964;48.694;21.206;2023-11-19T02:18:49;8.83;;;4.50;;
76194;SDS011;64964;48.694;21.206;2023-11-19T02:21:14;8.40;;;4.57;;
76194;SDS011;64964;48.694;21.206;2023-11-19T02:23:40;8.00;;;4.32;;
76194;SDS011;64964;48.694;21.206;2023-11-19T02:26:50;8.75;;;4.32;;
76194;SDS011;64964;48.694;21.206;2023-11-19T02:29:03;7.80;;;4.57;;
76194;SDS011;64964;48.694;21.206;2023-11-19T02:31:29;7.90;;;4.38;;
76194;SDS011;64964;48.694;21.206;2023-11-19T02:33:54;7.83;;;4.20;;
76194;SDS011;64964;48.694;21.206;2023-11-19T02:36:20;8.73;;;4.43;;
76194;SDS011;64964;48.694;21.206;2023-11-19T02:38:46;7.15;;;4.00;;
76194;SDS011;64964;48.694;21.206;2023-11-19T02:41:12;8.03;;;4.30;;
76194;SDS011;64964;48.694;21.206;2023-11-19T02:43:39;8.30;;;4.37;;
76194;SDS011;64964;48.694;21.206;2023-11-19T02:46:05;7.57;;;4.25;;
76194;SDS011;64964;48.694;21.206;2023-11-19T02:48:33;7.77;;;4.50;;
76194;SDS011;64964;48.694;21.206;2023-11-19T02:51:02;7.95;;;4.30;;
76194;SDS011;64964;48.694;21.206;2023-11-19T02:53:29;8.32;;;4.25;;
76194;SDS011;64964;48.694;21.206;2023-11-19T02:55:55;9.15;;;4.50;;
76194;SDS011;64964;48.694;21.206;2023-11-19T02:58:26;8.65;;;4.25;;
76194;SDS011;64964;48.694;21.206;2023-11-19T03:00:53;7.27;;;4.07;;
76194;SDS011;64964;48.694;21.206;2023-11-19T03:03:34;8.18;;;4.50;;
76194;SDS011;64964;48.694;21.206;2023-11-19T03:06:07;8.45;;;3.90;;
76194;SDS011;64964;48.694;21.206;2023-11-19T03:08:36;7.63;;;4.13;;
76194;SDS011;64964;48.694;21.206;2023-11-19T03:11:01;8.30;;;4.57;;
76194;SDS011;64964;48.694;21.206;2023-11-19T03:13:27;7.27;;;4.30;;
76194;SDS011;64964;48.694;21.206;2023-11-19T03:15:52;7.80;;;4.50;;
76194;SDS011;64964;48.694;21.206;2023-11-19T03:18:19;7.60;;;4.22;;
76194;SDS011;64964;48.694;21.206;2023-11-19T03:20:48;7.70;;;4.00;;
76194;SDS011;64964;48.694;21.206;2023-11-19T03:23:14;8.15;;;4.43;;
76194;SDS011;64964;48.694;21.206;2023-11-19T03:25:40;9.93;;;4.83;;
76194;SDS011;64964;48.694;21.206;2023-11-19T03:28:05;7.73;;;4.17;;
76194;SDS011;64964;48.694;21.206;2023-11-19T03:30:31;7.68;;;3.92;;
76194;SDS011;64964;48.694;21.206;2023-11-19T03:32:57;8.03;;;4.10;;
76194;SDS011;64964;48.694;21.206;2023-11-19T03:35:22;7.55;;;4.00;;
76194;SDS011;64964;48.694;21.206;2023-11-19T03:37:48;8.93;;;4.80;;
76194;SDS011;64964;48.694;21.206;2023-11-19T03:40:14;7.82;;;4.25;;
76194;SDS011;64964;48.694;21.206;2023-11-19T03:42:40;8.23;;;4.10;;
76194;SDS011;64964;48.694;21.206;2023-11-19T03:45:08;8.82;;;4.40;;
76194;SDS011;64964;48.694;21.206;2023-11-19T03:47:34;9.32;;;4.40;;
76194;SDS011;64964;48.694;21.206;2023-11-19T03:50:00;8.03;;;4.03;;
76194;SDS011;64964;48.694;21.206;2023-11-19T03:52:26;8.43;;;4.25;;
76194;SDS011;64964;48.694;21.206;2023-11-19T03:54:54;7.03;;;4.18;;
76194;SDS011;64964;48.694;21.206;2023-11-19T03:57:20;7.88;;;4.35;;
76194;SDS011;64964;48.694;21.206;2023-11-19T03:59:46;7.63;;;4.00;;
76194;SDS011;64964;48.694;21.206;2023-11-19T04:02:12;7.40;;;4.05;;
76194;SDS011;64964;48.694;21.206;2023-11-19T04:04:37;7.50;;;4.37;;
76194;SDS011;64964;48.694;21.206;2023-11-19T04:07:04;8.88;;;4.40;;
76194;SDS011;64964;48.694;21.206;2023-11-19T04:09:30;8.80;;;4.17;;
76194;SDS011;64964;48.694;21.206;2023-11-19T04:11:56;6.70;;;4.00;;
76194;SDS011;64964;48.694;21.206;2023-11-19T04:14:22;8.98;;;4.43;;
76194;SDS011;64964;48.694;21.206;2023-11-19T04:16:47;9.53;;;4.50;;
76194;SDS011;64964;48.694;21.206;2023-11-19T04:19:13;7.67;;;4.17;;
76194;SDS011;64964;48.694;21.206;2023-11-19T04:21:41;8.83;;;4.30;;
76194;SDS011;64964;48.694;21.206;2023-11-19T04:24:08;7.63;;;4.32;;
76194;SDS011;64964;48.694;21.206;2023-11-19T04:26:39;7.82;;;4.13;;
76194;SDS011;64964;48.694;21.206;2023-11-19T04:29:14;8.38;;;4.00;;
76194;SDS011;64964;48.694;21.206;2023-11-19T04:31:44;8.95;;;4.13;;
76194;SDS011;64964;48.694;21.206;2023-11-19T04:34:10;8.93;;;4.57;;
76194;SDS011;64964;48.694;21.206;2023-11-19T04:36:36;8.98;;;4.15;;
76194;SDS011;64964;48.694;21.206;2023-11-19T04:39:02;9.27;;;4.63;;
76194;SDS011;64964;48.694;21.206;2023-11-19T04:41:32;9.00;;;4.43;;
76194;SDS011;64964;48.694;21.206;2023-11-19T04:43:58;7.00;;;3.83;;
76194;SDS011;64964;48.694;21.206;2023-11-19T04:46:23;7.50;;;3.83;;
76194;SDS011;64964;48.694;21.206;2023-11-19T04:48:49;9.67;;;4.53;;
76194;SDS011;64964;48.694;21.206;2023-11-19T04:51:15;8.75;;;4.38;;
76194;SDS011;64964;48.694;21.206;2023-11-19T04:53:40;7.70;;;4.03;;
76194;SDS011;64964;48.694;21.206;2023-11-19T04:56:09;8.67;;;4.40;;
76194;SDS011;64964;48.694;21.206;2023-11-19T04:58:35;7.38;;;4.13;;
76194;SDS011;64964;48.694;21.206;2023-11-19T05:01:02;8.85;;;4.28;;
76194;SDS011;64964;48.694;21.206;2023-11-19T05:03:28;8.77;;;4.50;;
76194;SDS011;64964;48.694;21.206;2023-11-19T05:05:54;8.27;;;4.40;;
76194;SDS011;64964;48.694;21.206;2023-11-19T05:08:19;6.67;;;3.80;;
76194;SDS011;64964;48.694;21.206;2023-11-19T05:10:44;10.07;;;4.30;;
76194;SDS011;64964;48.694;21.206;2023-11-19T05:13:10;8.10;;;4.30;;
76194;SDS011;64964;48.694;21.206;2023-11-19T05:15:35;9.17;;;4.40;;
76194;SDS011;64964;48.694;21.206;2023-11-19T05:18:00;8.40;;;4.50;;
76194;SDS011;64964;48.694;21.206;2023-11-19T05:20:26;7.67;;;4.40;;
76194;SDS011;64964;48.694;21.206;2023-11-19T05:22:51;8.57;;;4.33;;
76194;SDS011;64964;48.694;21.206;2023-11-19T05:25:18;8.60;;;4.50;;
76194;SDS011;64964;48.694;21.206;2023-11-19T05:27:45;8.85;;;4.50;;
76194;SDS011;64964;48.694;21.206;2023-11-19T05:30:10;8.97;;;4.87;;
76194;SDS011;64964;48.694;21.206;2023-11-19T05:32:36;7.78;;;4.65;;
76194;SDS011;64964;48.694;21.206;2023-11-19T05:35:01;9.13;;;4.63;;
76194;SDS011;64964;48.694;21.206;2023-11-19T05:37:27;10.23;;;4.80;;
76194;SDS011;64964;48.694;21.206;2023-11-19T05:39:52;9.47;;;4.77;;
76194;SDS011;64964;48.694;21.206;2023-11-19T05:42:18;8.93;;;4.67;;
76194;SDS011;64964;48.694;21.206;2023-11-19T05:44:43;10.43;;;5.07;;
76194;SDS011;64964;48.694;21.206;2023-11-19T05:47:09;9.90;;;4.65;;
76194;SDS011;64964;48.694;21.206;2023-11-19T05:49:34;8.03;;;4.77;;
76194;SDS011;64964;48.694;21.206;2023-11-19T05:52:00;9.37;;;4.93;;
76194;SDS011;64964;48.694;21.206;2023-11-19T05:54:28;8.40;;;4.20;;
76194;SDS011;64964;48.694;21.206;2023-11-19T05:56:53;10.20;;;4.93;;
76194;SDS011;64964;48.694;21.206;2023-11-19T05:59:19;9.55;;;4.90;;
76194;SDS011;64964;48.694;21.206;2023-11-19T06:01:45;9.20;;;4.63;;
76194;SDS011;64964;48.694;21.206;2023-11-19T06:04:10;9.73;;;4.50;;
76194;SDS011;64964;48.694;21.206;2023-11-19T06:06:36;9.47;;;4.87;;
76194;SDS011;64964;48.694;21.206;2023-11-19T06:09:02;8.13;;;4.55;;
76194;SDS011;64964;48.694;21.206;2023-11-19T06:11:28;8.43;;;4.82;;
76194;SDS011;64964;48.694;21.206;2023-11-19T06:13:53;8.20;;;4.50;;
76194;SDS011;64964;48.694;21.206;2023-11-19T06:16:19;8.00;;;4.30;;
76194;SDS011;64964;48.694;21.206;2023-11-19T06:18:44;8.23;;;4.53;;
76194;SDS011;64964;48.694;21.206;2023-11-19T06:21:10;8.50;;;4.47;;
76194;SDS011;64964;48.694;21.206;2023-11-19T06:23:37;8.57;;;4.45;;
76194;SDS011;64964;48.694;21.206;2023-11-19T06:26:02;7.10;;;4.13;;
76194;SDS011;64964;48.694;21.206;2023-11-19T06:28:28;8.43;;;4.40;;
76194;SDS011;64964;48.694;21.206;2023-11-19T06:30:53;9.67;;;4.50;;
76194;SDS011;64964;48.694;21.206;2023-11-19T06:33:18;9.27;;;4.83;;
76194;SDS011;64964;48.694;21.206;2023-11-19T06:35:44;10.02;;;4.60;;
76194;SDS011;64964;48.694;21.206;2023-11-19T06:38:10;9.17;;;4.57;;
76194;SDS011;64964;48.694;21.206;2023-11-19T06:40:35;9.25;;;4.70;;
76194;SDS011;64964;48.694;21.206;2023-11-19T06:43:01;9.97;;;4.83;;
76194;SDS011;64964;48.694;21.206;2023-11-19T06:45:28;9.38;;;4.60;;
76194;SDS011;64964;48.694;21.206;2023-11-19T06:47:54;10.77;;;4.90;;
76194;SDS011;64964;48.694;21.206;2023-11-19T06:50:20;9.10;;;5.20;;
76194;SDS011;64964;48.694;21.206;2023-11-19T06:52:45;10.07;;;4.83;;
76194;SDS011;64964;48.694;21.206;2023-11-19T06:55:11;11.63;;;5.13;;
76194;SDS011;64964;48.694;21.206;2023-11-19T06:57:36;9.40;;;4.70;;
76194;SDS011;64964;48.694;21.206;2023-11-19T07:00:02;8.90;;;5.00;;
76194;SDS011;64964;48.694;21.206;2023-11-19T07:02:28;9.20;;;5.38;;
76194;SDS011;64964;48.694;21.206;2023-11-19T07:04:53;11.70;;;5.60;;
76194;SDS011;64964;48.694;21.206;2023-11-19T07:07:19;23.33;;;8.45;;
76194;SDS011;64964;48.694;21.206;2023-11-19T07:09:45;20.30;;;7.57;;
76194;SDS011;64964;48.694;21.206;2023-11-19T07:12:10;15.73;;;6.20;;
76194;SDS011;64964;48.694;21.206;2023-11-19T07:14:35;12.77;;;5.57;;
76194;SDS011;64964;48.694;21.206;2023-11-19T07:17:01;11.63;;;6.07;;
76194;SDS011;64964;48.694;21.206;2023-11-19T07:19:27;12.00;;;6.60;;
76194;SDS011;64964;48.694;21.206;2023-11-19T07:21:52;11.37;;;6.30;;
76194;SDS011;64964;48.694;21.206;2023-11-19T07:24:19;12.07;;;6.27;;
76194;SDS011;64964;48.694;21.206;2023-11-19T07:26:46;9.45;;;5.20;;
76194;SDS011;64964;48.694;21.206;2023-11-19T07:29:12;10.70;;;6.10;;
76194;SDS011;64964;48.694;21.206;2023-11-19T07:31:38;10.63;;;5.82;;
76194;SDS011;64964;48.694;21.206;2023-11-19T07:34:04;10.73;;;5.97;;
76194;SDS011;64964;48.694;21.206;2023-11-19T07:36:31;10.65;;;6.03;;
76194;SDS011;64964;48.694;21.206;2023-11-19T07:38:57;11.53;;;6.53;;
76194;SDS011;64964;48.694;21.206;2023-11-19T07:41:23;13.43;;;6.10;;
76194;SDS011;64964;48.694;21.206;2023-11-19T07:43:50;11.35;;;6.40;;
76194;SDS011;64964;48.694;21.206;2023-11-19T07:46:16;11.27;;;5.72;;
76194;SDS011;64964;48.694;21.206;2023-11-19T07:48:44;12.88;;;5.80;;
76194;SDS011;64964;48.694;21.206;2023-11-19T07:51:12;11.00;;;5.50;;
76194;SDS011;64964;48.694;21.206;2023-11-19T07:53:38;10.63;;;5.70;;
76194;SDS011;64964;48.694;21.206;2023-11-19T07:56:04;9.63;;;5.30;;
76194;SDS011;64964;48.694;21.206;2023-11-19T07:58:30;10.10;;;5.25;;
76194;SDS011;64964;48.694;21.206;2023-11-19T08:00:56;8.93;;;5.40;;
76194;SDS011;64964;48.694;21.206;2023-11-19T08:03:21;10.00;;;5.35;;
76194;SDS011;64964;48.694;21.206;2023-11-19T08:05:47;9.53;;;5.20;;
76194;SDS011;64964;48.694;21.206;2023-11-19T08:08:13;9.15;;;4.80;;
76194;SDS011;64964;48.694;21.206;2023-11-19T08:10:39;10.03;;;5.43;;
76194;SDS011;64964;48.694;21.206;2023-11-19T08:13:05;10.93;;;5.03;;
76194;SDS011;64964;48.694;21.206;2023-11-19T08:15:30;8.48;;;4.97;;
76194;SDS011;64964;48.694;21.206;2023-11-19T08:17:56;9.50;;;5.23;;
76194;SDS011;64964;48.694;21.206;2023-11-19T08:20:21;9.97;;;5.07;;
76194;SDS011;64964;48.694;21.206;2023-11-19T08:22:47;8.30;;;4.90;;
76194;SDS011;64964;48.694;21.206;2023-11-19T08:25:13;8.05;;;5.05;;
76194;SDS011;64964;48.694;21.206;2023-11-19T08:27:38;10.60;;;5.27;;
76194;SDS011;64964;48.694;21.206;2023-11-19T08:30:04;10.97;;;5.40;;
76194;SDS011;64964;48.694;21.206;2023-11-19T08:32:31;9.02;;;5.43;;
76194;SDS011;64964;48.694;21.206;2023-11-19T08:34:56;9.23;;;5.30;;
76194;SDS011;64964;48.694;21.206;2023-11-19T08:37:24;9.98;;;4.72;;
76194;SDS011;64964;48.694;21.206;2023-11-19T08:39:50;11.77;;;5.43;;
76194;SDS011;64964;48.694;21.206;2023-11-19T08:42:18;11.23;;;5.70;;
76194;SDS011;64964;48.694;21.206;2023-11-19T08:44:44;8.75;;;5.30;;
76194;SDS011;64964;48.694;21.206;2023-11-19T08:47:15;12.47;;;5.80;;
76194;SDS011;64964;48.694;21.206;2023-11-19T08:49:42;11.65;;;5.50;;
76194;SDS011;64964;48.694;21.206;2023-11-19T08:52:08;9.80;;;5.32;;
76194;SDS011;64964;48.694;21.206;2023-11-19T08:54:34;11.00;;;5.73;;
76194;SDS011;64964;48.694;21.206;2023-11-19T08:56:59;14.40;;;6.20;;
76194;SDS011;64964;48.694;21.206;2023-11-19T08:59:25;12.00;;;5.00;;
76194;SDS011;64964;48.694;21.206;2023-11-19T09:01:50;9.90;;;4.70;;
76194;SDS011;64964;48.694;21.206;2023-11-19T09:04:16;11.63;;;5.90;;
76194;SDS011;64964;48.694;21.206;2023-11-19T09:06:41;11.60;;;6.13;;
76194;SDS011;64964;48.694;21.206;2023-11-19T09:09:07;10.10;;;5.50;;
76194;SDS011;64964;48.694;21.206;2023-11-19T09:11:33;12.10;;;5.22;;
76194;SDS011;64964;48.694;21.206;2023-11-19T09:13:58;12.53;;;5.90;;
76194;SDS011;64964;48.694;21.206;2023-11-19T09:16:24;10.77;;;5.30;;
76194;SDS011;64964;48.694;21.206;2023-11-19T09:18:49;12.27;;;5.00;;
76194;SDS011;64964;48.694;21.206;2023-11-19T09:21:15;13.95;;;6.05;;
76194;SDS011;64964;48.694;21.206;2023-11-19T09:23:40;11.60;;;5.80;;
76194;SDS011;64964;48.694;21.206;2023-11-19T09:26:06;10.68;;;5.30;;
76194;SDS011;64964;48.694;21.206;2023-11-19T09:28:35;8.15;;;4.50;;
76194;SDS011;64964;48.694;21.206;2023-11-19T09:31:00;13.60;;;5.90;;
76194;SDS011;64964;48.694;21.206;2023-11-19T09:33:29;10.65;;;5.07;;
76194;SDS011;64964;48.694;21.206;2023-11-19T09:35:54;10.57;;;5.33;;
76194;SDS011;64964;48.694;21.206;2023-11-19T09:38:20;10.48;;;5.03;;
76194;SDS011;64964;48.694;21.206;2023-11-19T09:40:45;11.60;;;5.87;;
76194;SDS011;64964;48.694;21.206;2023-11-19T09:43:12;11.65;;;5.85;;
76194;SDS011;64964;48.694;21.206;2023-11-19T09:45:48;12.65;;;6.30;;
76194;SDS011;64964;48.694;21.206;2023-11-19T09:48:18;14.53;;;5.60;;
76194;SDS011;64964;48.694;21.206;2023-11-19T09:50:47;12.77;;;5.90;;
76194;SDS011;64964;48.694;21.206;2023-11-19T09:53:14;9.02;;;4.55;;
76194;SDS011;64964;48.694;21.206;2023-11-19T09:55:40;7.25;;;3.97;;
76194;SDS011;64964;48.694;21.206;2023-11-19T09:58:06;12.68;;;6.45;;
76194;SDS011;64964;48.694;21.206;2023-11-19T10:00:32;12.50;;;5.50;;
76194;SDS011;64964;48.694;21.206;2023-11-19T10:02:58;7.60;;;4.40;;
76194;SDS011;64964;48.694;21.206;2023-11-19T10:05:24;8.55;;;4.05;;
76194;SDS011;64964;48.694;21.206;2023-11-19T10:07:51;7.95;;;4.93;;
76194;SDS011;64964;48.694;21.206;2023-11-19T10:10:17;12.32;;;5.63;;
76194;SDS011;64964;48.694;21.206;2023-11-19T10:12:47;7.00;;;4.00;;
76194;SDS011;64964;48.694;21.206;2023-11-19T10:15:22;11.27;;;4.68;;
76194;SDS011;64964;48.694;21.206;2023-11-19T10:17:55;9.88;;;5.45;;
76194;SDS011;64964;48.694;21.206;2023-11-19T10:20:21;8.93;;;4.60;;
76194;SDS011;64964;48.694;21.206;2023-11-19T10:22:47;7.43;;;4.63;;
76194;SDS011;64964;48.694;21.206;2023-11-19T10:27:48;8.30;;;4.40;;
76194;SDS011;64964;48.694;21.206;2023-11-19T10:30:21;13.52;;;5.65;;
76194;SDS011;64964;48.694;21.206;2023-11-19T10:36:09;9.60;;;5.13;;
76194;SDS011;64964;48.694;21.206;2023-11-19T10:38:27;7.80;;;4.30;;
76194;SDS011;64964;48.694;21.206;2023-11-19T10:40:53;7.75;;;4.03;;
76194;SDS011;64964;48.694;21.206;2023-11-19T10:43:22;11.90;;;5.75;;
76194;SDS011;64964;48.694;21.206;2023-11-19T10:45:48;11.33;;;5.30;;
76194;SDS011;64964;48.694;21.206;2023-11-19T10:48:14;8.75;;;4.25;;
76194;SDS011;64964;48.694;21.206;2023-11-19T10:50:40;9.02;;;4.55;;
76194;SDS011;64964;48.694;21.206;2023-11-19T10:53:07;11.73;;;5.53;;
76194;SDS011;64964;48.694;21.206;2023-11-19T10:55:34;7.45;;;3.38;;
76194;SDS011;64964;48.694;21.206;2023-11-19T11:00:39;10.63;;;4.95;;
76194;SDS011;64964;48.694;21.206;2023-11-19T11:03:19;10.65;;;5.78;;
76194;SDS011;64964;48.694;21.206;2023-11-19T11:05:49;9.93;;;4.33;;
76194;SDS011;64964;48.694;21.206;2023-11-19T11:08:15;7.90;;;4.38;;
76194;SDS011;64964;48.694;21.206;2023-11-19T11:10:45;12.88;;;6.28;;
76194;SDS011;64964;48.694;21.206;2023-11-19T11:13:17;13.13;;;6.28;;
76194;SDS011;64964;48.694;21.206;2023-11-19T11:15:44;14.05;;;6.32;;
76194;SDS011;64964;48.694;21.206;2023-11-19T11:18:11;12.07;;;6.30;;
76194;SDS011;64964;48.694;21.206;2023-11-19T11:20:38;12.45;;;5.70;;
76194;SDS011;64964;48.694;21.206;2023-11-19T11:37:18;9.98;;;5.18;;
76194;SDS011;64964;48.694;21.206;2023-11-19T11:39:39;10.82;;;5.20;;
76194;SDS011;64964;48.694;21.206;2023-11-19T11:55:26;9.00;;;4.53;;
76194;SDS011;64964;48.694;21.206;2023-11-19T11:57:52;7.70;;;4.00;;
76194;SDS011;64964;48.694;21.206;2023-11-19T12:00:22;9.40;;;4.03;;
76194;SDS011;64964;48.694;21.206;2023-11-19T12:02:51;9.20;;;4.70;;
76194;SDS011;64964;48.694;21.206;2023-11-19T12:05:17;8.37;;;4.77;;
76194;SDS011;64964;48.694;21.206;2023-11-19T12:07:44;10.02;;;5.00;;
76194;SDS011;64964;48.694;21.206;2023-11-19T12:10:28;10.63;;;4.47;;
76194;SDS011;64964;48.694;21.206;2023-11-19T12:13:00;6.32;;;3.53;;
76194;SDS011;64964;48.694;21.206;2023-11-19T12:15:26;9.77;;;5.40;;
76194;SDS011;64964;48.694;21.206;2023-11-19T12:17:53;9.25;;;5.25;;
76194;SDS011;64964;48.694;21.206;2023-11-19T12:20:23;5.38;;;3.58;;
76194;SDS011;64964;48.694;21.206;2023-11-19T12:22:50;5.73;;;3.47;;
76194;SDS011;64964;48.694;21.206;2023-11-19T12:25:17;9.98;;;5.38;;
76194;SDS011;64964;48.694;21.206;2023-11-19T12:27:44;12.57;;;6.15;;
76194;SDS011;64964;48.694;21.206;2023-11-19T12:30:11;7.15;;;4.05;;
76194;SDS011;64964;48.694;21.206;2023-11-19T12:32:37;12.00;;;5.87;;
76194;SDS011;64964;48.694;21.206;2023-11-19T12:35:07;11.43;;;6.05;;
76194;SDS011;64964;48.694;21.206;2023-11-19T12:37:38;10.07;;;5.07;;
76194;SDS011;64964;48.694;21.206;2023-11-19T12:40:10;9.32;;;3.60;;
76194;SDS011;64964;48.694;21.206;2023-11-19T12:42:38;7.30;;;4.18;;
76194;SDS011;64964;48.694;21.206;2023-11-19T12:45:04;10.00;;;4.87;;
76194;SDS011;64964;48.694;21.206;2023-11-19T12:47:30;11.68;;;6.10;;
76194;SDS011;64964;48.694;21.206;2023-11-19T12:49:56;9.97;;;5.07;;
76194;SDS011;64964;48.694;21.206;2023-11-19T12:52:22;13.55;;;5.95;;
76194;SDS011;64964;48.694;21.206;2023-11-19T12:54:48;12.43;;;5.70;;
76194;SDS011;64964;48.694;21.206;2023-11-19T12:57:14;9.03;;;5.03;;
76194;SDS011;64964;48.694;21.206;2023-11-19T12:59:40;9.73;;;5.30;;
76194;SDS011;64964;48.694;21.206;2023-11-19T13:02:06;11.80;;;6.07;;
76194;SDS011;64964;48.694;21.206;2023-11-19T13:04:32;12.43;;;5.88;;
76194;SDS011;64964;48.694;21.206;2023-11-19T13:06:57;11.63;;;5.97;;
76194;SDS011;64964;48.694;21.206;2023-11-19T13:09:24;8.95;;;4.50;;
76194;SDS011;64964;48.694;21.206;2023-11-19T13:11:51;15.82;;;8.45;;
76194;SDS011;64964;48.694;21.206;2023-11-19T13:14:17;9.07;;;5.22;;
76194;SDS011;64964;48.694;21.206;2023-11-19T13:16:43;13.63;;;6.72;;
76194;SDS011;64964;48.694;21.206;2023-11-19T13:19:11;12.07;;;6.33;;
76194;SDS011;64964;48.694;21.206;2023-11-19T13:21:37;13.77;;;6.72;;
76194;SDS011;64964;48.694;21.206;2023-11-19T13:24:04;12.98;;;6.93;;
76194;SDS011;64964;48.694;21.206;2023-11-19T13:26:33;11.23;;;5.85;;
76194;SDS011;64964;48.694;21.206;2023-11-19T13:28:59;8.85;;;5.38;;
76194;SDS011;64964;48.694;21.206;2023-11-19T13:31:25;10.90;;;5.67;;
76194;SDS011;64964;48.694;21.206;2023-11-19T13:33:51;11.80;;;6.22;;
76194;SDS011;64964;48.694;21.206;2023-11-19T13:36:16;13.47;;;7.33;;
76194;SDS011;64964;48.694;21.206;2023-11-19T13:38:41;12.53;;;7.30;;
76194;SDS011;64964;48.694;21.206;2023-11-19T13:41:09;16.70;;;8.40;;
76194;SDS011;64964;48.694;21.206;2023-11-19T13:43:36;13.43;;;6.68;;
76194;SDS011;64964;48.694;21.206;2023-11-19T13:46:01;15.63;;;8.37;;
76194;SDS011;64964;48.694;21.206;2023-11-19T13:48:27;11.00;;;6.47;;
76194;SDS011;64964;48.694;21.206;2023-11-19T13:50:54;14.98;;;7.93;;
76194;SDS011;64964;48.694;21.206;2023-11-19T13:53:20;14.63;;;7.50;;
76194;SDS011;64964;48.694;21.206;2023-11-19T13:55:46;11.20;;;5.97;;
76194;SDS011;64964;48.694;21.206;2023-11-19T13:58:11;15.18;;;7.95;;
76194;SDS011;64964;48.694;21.206;2023-11-19T14:00:36;16.03;;;8.60;;
76194;SDS011;64964;48.694;21.206;2023-11-19T14:03:02;14.07;;;8.02;;
76194;SDS011;64964;48.694;21.206;2023-11-19T14:05:28;13.53;;;6.90;;
76194;SDS011;64964;48.694;21.206;2023-11-19T14:07:53;16.43;;;8.87;;
76194;SDS011;64964;48.694;21.206;2023-11-19T14:10:21;13.82;;;6.30;;
76194;SDS011;64964;48.694;21.206;2023-11-19T14:12:47;15.30;;;7.63;;
76194;SDS011;64964;48.694;21.206;2023-11-19T14:15:12;13.83;;;7.57;;
76194;SDS011;64964;48.694;21.206;2023-11-19T14:17:38;12.33;;;6.90;;
76194;SDS011;64964;48.694;21.206;2023-11-19T14:20:04;17.55;;;9.35;;
76194;SDS011;64964;48.694;21.206;2023-11-19T14:22:40;16.65;;;8.50;;
76194;SDS011;64964;48.694;21.206;2023-11-19T14:25:10;13.48;;;7.13;;
76194;SDS011;64964;48.694;21.206;2023-11-19T14:27:39;14.90;;;8.03;;
76194;SDS011;64964;48.694;21.206;2023-11-19T14:30:10;16.30;;;8.68;;
76194;SDS011;64964;48.694;21.206;2023-11-19T14:32:36;12.18;;;5.95;;
76194;SDS011;64964;48.694;21.206;2023-11-19T14:35:02;17.73;;;8.75;;
76194;SDS011;64964;48.694;21.206;2023-11-19T14:37:29;17.13;;;8.97;;
76194;SDS011;64964;48.694;21.206;2023-11-19T14:39:55;14.57;;;7.32;;
76194;SDS011;64964;48.694;21.206;2023-11-19T14:42:22;18.27;;;9.68;;
76194;SDS011;64964;48.694;21.206;2023-11-19T14:44:48;16.85;;;8.75;;
76194;SDS011;64964;48.694;21.206;2023-11-19T14:47:14;17.43;;;9.20;;
76194;SDS011;64964;48.694;21.206;2023-11-19T14:49:39;6.40;;;3.53;;
76194;SDS011;64964;48.694;21.206;2023-11-19T14:52:04;13.37;;;7.53;;
76194;SDS011;64964;48.694;21.206;2023-11-19T14:54:30;18.08;;;9.65;;
76194;SDS011;64964;48.694;21.206;2023-11-19T14:56:56;19.87;;;9.57;;
76194;SDS011;64964;48.694;21.206;2023-11-19T14:59:21;19.38;;;9.73;;